sensor_id;sensor_type;location;lat;lon;timestamp;P1;durP1;ratioP1;P2;durP2;ratioP2
6249;SDS011;3158;52.148;11.568;2023-02-23T00:01:30;4.20;;;2.70;;
6249;SDS011;3158;52.148;11.568;2023-02-23T00:06:31;4.85;;;2.15;;
6249;SDS011;3158;52.148;11.568;2023-02-23T00:11:34;5.35;;;2.67;;
6249;SDS011;3158;52.148;11.568;2023-02-23T00:16:37;2.50;;;2.20;;
6249;SDS011;3158;52.148;11.568;2023-02-23T00:21:38;6.55;;;2.50;;
6249;SDS011;3158;52.148;11.568;2023-02-23T00:26:40;4.70;;;2.35;;
6249;SDS011;3158;52.148;11.568;2023-02-23T00:31:42;3.63;;;2.63;;
6249;SDS011;3158;52.148;11.568;2023-02-23T00:36:43;5.85;;;1.80;;
6249;SDS011;3158;52.148;11.568;2023-02-23T00:41:49;7.13;;;3.72;;
6249;SDS011;3158;52.148;11.568;2023-02-23T00:46:54;3.80;;;2.55;;
6249;SDS011;3158;52.148;11.568;2023-02-23T00:51:55;5.43;;;3.00;;
6249;SDS011;3158;52.148;11.568;2023-02-23T00:56:56;6.55;;;2.75;;
6249;SDS011;3158;52.148;11.568;2023-02-23T01:01:57;3.30;;;2.50;;
6249;SDS011;3158;52.148;11.568;2023-02-23T01:06:59;2.97;;;1.55;;
6249;SDS011;3158;52.148;11.568;2023-02-23T01:12:03;2.65;;;2.33;;
6249;SDS011;3158;52.148;11.568;2023-02-23T01:17:06;12.25;;;2.55;;
6249;SDS011;3158;52.148;11.568;2023-02-23T01:22:07;5.50;;;1.98;;
6249;SDS011;3158;52.148;11.568;2023-02-23T01:27:08;2.05;;;1.92;;
6249;SDS011;3158;52.148;11.568;2023-02-23T01:32:09;2.35;;;2.00;;
6249;SDS011;3158;52.148;11.568;2023-02-23T01:37:11;2.85;;;2.15;;
6249;SDS011;3158;52.148;11.568;2023-02-23T01:42:12;2.00;;;1.77;;
6249;SDS011;3158;52.148;11.568;2023-02-23T01:47:14;5.55;;;2.42;;
6249;SDS011;3158;52.148;11.568;2023-02-23T01:52:16;4.30;;;2.20;;
6249;SDS011;3158;52.148;11.568;2023-02-23T01:57:18;3.40;;;2.10;;
6249;SDS011;3158;52.148;11.568;2023-02-23T02:02:21;2.53;;;1.92;;
6249;SDS011;3158;52.148;11.568;2023-02-23T02:07:23;5.28;;;2.40;;
6249;SDS011;3158;52.148;11.568;2023-02-23T02:12:26;2.00;;;1.88;;
6249;SDS011;3158;52.148;11.568;2023-02-23T02:22:35;2.17;;;1.90;;
6249;SDS011;3158;52.148;11.568;2023-02-23T02:32:57;4.97;;;2.13;;
6249;SDS011;3158;52.148;11.568;2023-02-23T02:38:16;3.58;;;1.95;;
6249;SDS011;3158;52.148;11.568;2023-02-23T02:43:22;2.35;;;1.92;;
6249;SDS011;3158;52.148;11.568;2023-02-23T02:58:31;2.92;;;2.30;;
6249;SDS011;3158;52.148;11.568;2023-02-23T03:03:40;2.40;;;2.17;;
6249;SDS011;3158;52.148;11.568;2023-02-23T03:09:20;2.35;;;1.60;;
6249;SDS011;3158;52.148;11.568;2023-02-23T03:14:45;3.53;;;2.10;;
6249;SDS011;3158;52.148;11.568;2023-02-23T03:20:18;2.17;;;2.08;;
6249;SDS011;3158;52.148;11.568;2023-02-23T03:25:50;2.33;;;2.22;;
6249;SDS011;3158;52.148;11.568;2023-02-23T03:36:53;4.40;;;1.55;;
6249;SDS011;3158;52.148;11.568;2023-02-23T03:42:15;2.53;;;1.83;;
6249;SDS011;3158;52.148;11.568;2023-02-23T03:47:36;2.90;;;2.22;;
6249;SDS011;3158;52.148;11.568;2023-02-23T03:52:59;3.15;;;1.83;;
6249;SDS011;3158;52.148;11.568;2023-02-23T03:58:22;2.10;;;1.83;;
6249;SDS011;3158;52.148;11.568;2023-02-23T04:03:44;2.05;;;1.58;;
6249;SDS011;3158;52.148;11.568;2023-02-23T04:09:06;3.88;;;1.70;;
6249;SDS011;3158;52.148;11.568;2023-02-23T04:14:34;3.42;;;1.90;;
6249;SDS011;3158;52.148;11.568;2023-02-23T04:19:36;2.15;;;2.03;;
6249;SDS011;3158;52.148;11.568;2023-02-23T04:24:37;4.80;;;2.17;;
6249;SDS011;3158;52.148;11.568;2023-02-23T04:29:39;3.42;;;2.28;;
6249;SDS011;3158;52.148;11.568;2023-02-23T04:34:40;2.42;;;1.67;;
6249;SDS011;3158;52.148;11.568;2023-02-23T04:39:41;4.82;;;2.35;;
6249;SDS011;3158;52.148;11.568;2023-02-23T04:44:47;2.72;;;2.22;;
6249;SDS011;3158;52.148;11.568;2023-02-23T04:49:49;5.70;;;2.47;;
6249;SDS011;3158;52.148;11.568;2023-02-23T04:54:50;2.42;;;2.22;;
6249;SDS011;3158;52.148;11.568;2023-02-23T04:59:51;4.28;;;2.30;;
6249;SDS011;3158;52.148;11.568;2023-02-23T05:04:52;2.58;;;2.38;;
6249;SDS011;3158;52.148;11.568;2023-02-23T05:09:53;9.27;;;2.90;;
6249;SDS011;3158;52.148;11.568;2023-02-23T05:14:54;8.65;;;2.78;;
6249;SDS011;3158;52.148;11.568;2023-02-23T05:19:56;11.60;;;3.55;;
6249;SDS011;3158;52.148;11.568;2023-02-23T05:24:57;6.25;;;2.85;;
6249;SDS011;3158;52.148;11.568;2023-02-23T05:29:58;6.50;;;3.38;;
6249;SDS011;3158;52.148;11.568;2023-02-23T05:34:59;12.88;;;4.53;;
6249;SDS011;3158;52.148;11.568;2023-02-23T05:40:01;10.35;;;4.50;;
6249;SDS011;3158;52.148;11.568;2023-02-23T05:45:02;13.05;;;3.33;;
6249;SDS011;3158;52.148;11.568;2023-02-23T05:50:04;13.00;;;4.63;;
6249;SDS011;3158;52.148;11.568;2023-02-23T05:55:06;8.25;;;3.90;;
6249;SDS011;3158;52.148;11.568;2023-02-23T06:00:08;8.00;;;3.75;;
6249;SDS011;3158;52.148;11.568;2023-02-23T06:05:10;7.75;;;3.67;;
6249;SDS011;3158;52.148;11.568;2023-02-23T06:10:12;12.57;;;4.60;;
6249;SDS011;3158;52.148;11.568;2023-02-23T06:15:13;9.75;;;4.43;;
6249;SDS011;3158;52.148;11.568;2023-02-23T06:20:14;6.88;;;4.30;;
6249;SDS011;3158;52.148;11.568;2023-02-23T06:25:16;9.40;;;4.15;;
6249;SDS011;3158;52.148;11.568;2023-02-23T06:30:17;9.52;;;4.75;;
6249;SDS011;3158;52.148;11.568;2023-02-23T06:35:18;7.07;;;4.30;;
6249;SDS011;3158;52.148;11.568;2023-02-23T06:40:19;9.38;;;5.07;;
6249;SDS011;3158;52.148;11.568;2023-02-23T06:45:20;7.95;;;4.63;;
6249;SDS011;3158;52.148;11.568;2023-02-23T06:50:22;11.45;;;6.18;;
6249;SDS011;3158;52.148;11.568;2023-02-23T06:55:24;7.43;;;4.53;;
6249;SDS011;3158;52.148;11.568;2023-02-23T07:00:25;9.98;;;5.32;;
6249;SDS011;3158;52.148;11.568;2023-02-23T07:05:26;13.50;;;5.75;;
6249;SDS011;3158;52.148;11.568;2023-02-23T07:10:27;10.55;;;5.50;;
6249;SDS011;3158;52.148;11.568;2023-02-23T07:15:28;8.02;;;5.07;;
6249;SDS011;3158;52.148;11.568;2023-02-23T07:20:30;12.73;;;5.43;;
6249;SDS011;3158;52.148;11.568;2023-02-23T07:25:32;13.40;;;5.55;;
6249;SDS011;3158;52.148;11.568;2023-02-23T07:30:33;10.82;;;5.28;;
6249;SDS011;3158;52.148;11.568;2023-02-23T07:35:34;7.95;;;4.95;;
6249;SDS011;3158;52.148;11.568;2023-02-23T07:40:35;8.93;;;5.55;;
6249;SDS011;3158;52.148;11.568;2023-02-23T07:45:37;10.73;;;5.10;;
6249;SDS011;3158;52.148;11.568;2023-02-23T07:50:38;9.15;;;5.97;;
6249;SDS011;3158;52.148;11.568;2023-02-23T07:55:40;5.55;;;4.70;;
6249;SDS011;3158;52.148;11.568;2023-02-23T08:00:41;12.57;;;6.43;;
6249;SDS011;3158;52.148;11.568;2023-02-23T08:05:42;11.63;;;6.57;;
6249;SDS011;3158;52.148;11.568;2023-02-23T08:10:44;10.93;;;6.93;;
6249;SDS011;3158;52.148;11.568;2023-02-23T08:15:45;24.63;;;7.85;;
6249;SDS011;3158;52.148;11.568;2023-02-23T08:20:46;16.67;;;9.07;;
6249;SDS011;3158;52.148;11.568;2023-02-23T08:25:47;16.98;;;9.55;;
6249;SDS011;3158;52.148;11.568;2023-02-23T08:30:48;23.58;;;13.82;;
6249;SDS011;3158;52.148;11.568;2023-02-23T08:35:49;28.10;;;15.55;;
6249;SDS011;3158;52.148;11.568;2023-02-23T08:40:52;28.38;;;15.65;;
6249;SDS011;3158;52.148;11.568;2023-02-23T08:45:54;33.97;;;17.63;;
6249;SDS011;3158;52.148;11.568;2023-02-23T08:50:56;40.10;;;18.48;;
6249;SDS011;3158;52.148;11.568;2023-02-23T08:55:57;41.15;;;21.85;;
6249;SDS011;3158;52.148;11.568;2023-02-23T09:01:00;48.00;;;24.50;;
6249;SDS011;3158;52.148;11.568;2023-02-23T09:06:05;52.75;;;24.23;;
6249;SDS011;3158;52.148;11.568;2023-02-23T09:11:07;44.00;;;24.20;;
6249;SDS011;3158;52.148;11.568;2023-02-23T09:16:08;45.13;;;23.98;;
6249;SDS011;3158;52.148;11.568;2023-02-23T09:21:12;45.85;;;23.70;;
6249;SDS011;3158;52.148;11.568;2023-02-23T09:26:18;46.58;;;24.08;;
6249;SDS011;3158;52.148;11.568;2023-02-23T09:31:20;48.85;;;23.10;;
6249;SDS011;3158;52.148;11.568;2023-02-23T09:36:22;46.70;;;22.70;;
6249;SDS011;3158;52.148;11.568;2023-02-23T09:51:29;49.38;;;24.45;;
6249;SDS011;3158;52.148;11.568;2023-02-23T09:56:33;48.55;;;25.17;;
6249;SDS011;3158;52.148;11.568;2023-02-23T10:01:45;45.28;;;24.08;;
6249;SDS011;3158;52.148;11.568;2023-02-23T10:12:27;56.05;;;26.77;;
6249;SDS011;3158;52.148;11.568;2023-02-23T10:22:37;51.13;;;26.30;;
6249;SDS011;3158;52.148;11.568;2023-02-23T10:27:42;55.65;;;27.58;;
6249;SDS011;3158;52.148;11.568;2023-02-23T10:33:17;55.25;;;27.35;;
6249;SDS011;3158;52.148;11.568;2023-02-23T10:38:13;61.45;;;27.67;;
6249;SDS011;3158;52.148;11.568;2023-02-23T10:43:14;59.78;;;27.88;;
6249;SDS011;3158;52.148;11.568;2023-02-23T10:48:20;59.15;;;27.52;;
6249;SDS011;3158;52.148;11.568;2023-02-23T10:53:24;50.05;;;25.17;;
6249;SDS011;3158;52.148;11.568;2023-02-23T10:58:25;54.88;;;26.95;;
6249;SDS011;3158;52.148;11.568;2023-02-23T11:03:35;58.60;;;26.35;;
6249;SDS011;3158;52.148;11.568;2023-02-23T11:08:37;57.58;;;26.90;;
6249;SDS011;3158;52.148;11.568;2023-02-23T11:13:44;57.90;;;26.58;;
6249;SDS011;3158;52.148;11.568;2023-02-23T11:23:50;58.33;;;26.65;;
6249;SDS011;3158;52.148;11.568;2023-02-23T11:28:54;61.08;;;26.65;;
6249;SDS011;3158;52.148;11.568;2023-02-23T11:33:56;81.80;;;29.77;;
6249;SDS011;3158;52.148;11.568;2023-02-23T11:39:04;76.28;;;30.70;;
6249;SDS011;3158;52.148;11.568;2023-02-23T11:44:05;80.90;;;30.05;;
6249;SDS011;3158;52.148;11.568;2023-02-23T11:49:08;68.72;;;30.35;;
6249;SDS011;3158;52.148;11.568;2023-02-23T11:54:19;57.90;;;28.80;;
6249;SDS011;3158;52.148;11.568;2023-02-23T11:59:25;74.75;;;30.15;;
6249;SDS011;3158;52.148;11.568;2023-02-23T12:04:31;59.78;;;27.98;;
6249;SDS011;3158;52.148;11.568;2023-02-23T12:09:36;58.35;;;27.55;;
6249;SDS011;3158;52.148;11.568;2023-02-23T12:14:43;60.53;;;27.55;;
6249;SDS011;3158;52.148;11.568;2023-02-23T12:19:59;54.97;;;27.08;;
6249;SDS011;3158;52.148;11.568;2023-02-23T12:25:03;57.45;;;27.45;;
6249;SDS011;3158;52.148;11.568;2023-02-23T12:30:11;52.85;;;26.42;;
6249;SDS011;3158;52.148;11.568;2023-02-23T12:40:23;53.22;;;25.98;;
6249;SDS011;3158;52.148;11.568;2023-02-23T12:50:50;55.40;;;25.33;;
6249;SDS011;3158;52.148;11.568;2023-02-23T13:01:16;57.03;;;25.35;;
6249;SDS011;3158;52.148;11.568;2023-02-23T13:06:28;54.38;;;26.10;;
6249;SDS011;3158;52.148;11.568;2023-02-23T13:11:41;56.25;;;26.13;;
6249;SDS011;3158;52.148;11.568;2023-02-23T13:16:49;56.47;;;27.65;;
6249;SDS011;3158;52.148;11.568;2023-02-23T13:27:16;58.65;;;25.42;;
6249;SDS011;3158;52.148;11.568;2023-02-23T13:32:22;54.20;;;27.05;;
6249;SDS011;3158;52.148;11.568;2023-02-23T13:37:25;60.63;;;27.33;;
6249;SDS011;3158;52.148;11.568;2023-02-23T13:52:52;61.80;;;27.75;;
6249;SDS011;3158;52.148;11.568;2023-02-23T13:58:13;56.72;;;27.05;;
6249;SDS011;3158;52.148;11.568;2023-02-23T14:03:21;72.00;;;27.95;;
6249;SDS011;3158;52.148;11.568;2023-02-23T14:08:27;62.55;;;26.42;;
6249;SDS011;3158;52.148;11.568;2023-02-23T14:13:32;60.00;;;27.10;;
6249;SDS011;3158;52.148;11.568;2023-02-23T14:18:34;65.13;;;27.20;;
6249;SDS011;3158;52.148;11.568;2023-02-23T14:23:47;91.72;;;36.10;;
6249;SDS011;3158;52.148;11.568;2023-02-23T14:29:09;60.60;;;28.45;;
6249;SDS011;3158;52.148;11.568;2023-02-23T14:34:11;67.80;;;27.05;;
6249;SDS011;3158;52.148;11.568;2023-02-23T14:39:25;60.80;;;26.88;;
6249;SDS011;3158;52.148;11.568;2023-02-23T14:44:31;65.97;;;26.92;;
6249;SDS011;3158;52.148;11.568;2023-02-23T14:49:35;55.10;;;24.58;;
6249;SDS011;3158;52.148;11.568;2023-02-23T14:54:39;53.63;;;24.52;;
6249;SDS011;3158;52.148;11.568;2023-02-23T14:59:41;52.08;;;23.20;;
6249;SDS011;3158;52.148;11.568;2023-02-23T15:04:42;46.13;;;20.38;;
6249;SDS011;3158;52.148;11.568;2023-02-23T15:09:43;45.30;;;21.85;;
6249;SDS011;3158;52.148;11.568;2023-02-23T15:14:47;48.55;;;20.80;;
6249;SDS011;3158;52.148;11.568;2023-02-23T15:19:52;49.72;;;21.48;;
6249;SDS011;3158;52.148;11.568;2023-02-23T15:24:55;40.67;;;19.42;;
6249;SDS011;3158;52.148;11.568;2023-02-23T15:30:13;29.77;;;16.00;;
6249;SDS011;3158;52.148;11.568;2023-02-23T15:35:16;31.70;;;15.02;;
6249;SDS011;3158;52.148;11.568;2023-02-23T15:40:19;23.08;;;14.25;;
6249;SDS011;3158;52.148;11.568;2023-02-23T15:45:30;32.03;;;15.73;;
6249;SDS011;3158;52.148;11.568;2023-02-23T15:50:42;27.33;;;15.23;;
6249;SDS011;3158;52.148;11.568;2023-02-23T15:55:49;27.80;;;15.65;;
6249;SDS011;3158;52.148;11.568;2023-02-23T16:00:56;26.35;;;15.05;;
6249;SDS011;3158;52.148;11.568;2023-02-23T16:11:06;33.58;;;16.50;;
6249;SDS011;3158;52.148;11.568;2023-02-23T16:16:11;33.65;;;17.52;;
6249;SDS011;3158;52.148;11.568;2023-02-23T16:21:20;35.97;;;17.85;;
6249;SDS011;3158;52.148;11.568;2023-02-23T16:26:44;31.70;;;17.05;;
6249;SDS011;3158;52.148;11.568;2023-02-23T16:31:47;35.83;;;18.00;;
6249;SDS011;3158;52.148;11.568;2023-02-23T16:36:50;28.70;;;16.65;;
6249;SDS011;3158;52.148;11.568;2023-02-23T16:41:55;38.38;;;18.63;;
6249;SDS011;3158;52.148;11.568;2023-02-23T16:51:59;31.27;;;16.15;;
6249;SDS011;3158;52.148;11.568;2023-02-23T16:57:01;28.02;;;15.50;;
6249;SDS011;3158;52.148;11.568;2023-02-23T17:02:02;25.27;;;14.10;;
6249;SDS011;3158;52.148;11.568;2023-02-23T17:07:08;27.17;;;15.48;;
6249;SDS011;3158;52.148;11.568;2023-02-23T17:12:10;25.95;;;13.98;;
6249;SDS011;3158;52.148;11.568;2023-02-23T17:17:12;17.92;;;11.93;;
6249;SDS011;3158;52.148;11.568;2023-02-23T17:22:14;13.45;;;9.30;;
6249;SDS011;3158;52.148;11.568;2023-02-23T17:27:16;14.23;;;9.68;;
6249;SDS011;3158;52.148;11.568;2023-02-23T17:32:17;16.67;;;11.05;;
6249;SDS011;3158;52.148;11.568;2023-02-23T17:37:21;34.15;;;16.98;;
6249;SDS011;3158;52.148;11.568;2023-02-23T17:42:22;18.75;;;11.00;;
6249;SDS011;3158;52.148;11.568;2023-02-23T17:47:33;19.38;;;11.82;;
6249;SDS011;3158;52.148;11.568;2023-02-23T17:52:34;10.77;;;8.30;;
6249;SDS011;3158;52.148;11.568;2023-02-23T17:57:35;11.95;;;8.38;;
6249;SDS011;3158;52.148;11.568;2023-02-23T18:02:37;11.10;;;6.88;;
6249;SDS011;3158;52.148;11.568;2023-02-23T18:07:39;11.27;;;7.13;;
6249;SDS011;3158;52.148;11.568;2023-02-23T18:12:41;9.43;;;7.10;;
6249;SDS011;3158;52.148;11.568;2023-02-23T18:17:43;11.38;;;7.82;;
6249;SDS011;3158;52.148;11.568;2023-02-23T18:22:46;12.30;;;7.18;;
6249;SDS011;3158;52.148;11.568;2023-02-23T18:27:48;13.98;;;8.35;;
6249;SDS011;3158;52.148;11.568;2023-02-23T18:32:50;12.88;;;7.97;;
6249;SDS011;3158;52.148;11.568;2023-02-23T18:37:51;11.95;;;6.65;;
6249;SDS011;3158;52.148;11.568;2023-02-23T18:42:52;11.32;;;6.38;;
6249;SDS011;3158;52.148;11.568;2023-02-23T18:47:55;10.50;;;6.38;;
6249;SDS011;3158;52.148;11.568;2023-02-23T18:52:56;12.50;;;6.72;;
6249;SDS011;3158;52.148;11.568;2023-02-23T18:58:02;12.50;;;6.90;;
6249;SDS011;3158;52.148;11.568;2023-02-23T19:03:04;9.73;;;7.00;;
6249;SDS011;3158;52.148;11.568;2023-02-23T19:08:06;11.18;;;5.95;;
6249;SDS011;3158;52.148;11.568;2023-02-23T19:13:07;12.43;;;6.93;;
6249;SDS011;3158;52.148;11.568;2023-02-23T19:18:08;8.75;;;5.53;;
6249;SDS011;3158;52.148;11.568;2023-02-23T19:23:10;10.68;;;6.47;;
6249;SDS011;3158;52.148;11.568;2023-02-23T19:28:12;13.65;;;6.15;;
6249;SDS011;3158;52.148;11.568;2023-02-23T19:33:15;13.15;;;6.43;;
6249;SDS011;3158;52.148;11.568;2023-02-23T19:38:16;8.05;;;5.32;;
6249;SDS011;3158;52.148;11.568;2023-02-23T19:43:17;13.55;;;6.50;;
6249;SDS011;3158;52.148;11.568;2023-02-23T19:48:18;11.13;;;6.68;;
6249;SDS011;3158;52.148;11.568;2023-02-23T19:53:21;7.53;;;5.22;;
6249;SDS011;3158;52.148;11.568;2023-02-23T19:58:22;11.25;;;6.03;;
6249;SDS011;3158;52.148;11.568;2023-02-23T20:03:26;11.38;;;5.57;;
6249;SDS011;3158;52.148;11.568;2023-02-23T20:08:27;10.10;;;6.13;;
6249;SDS011;3158;52.148;11.568;2023-02-23T20:13:28;8.65;;;5.90;;
6249;SDS011;3158;52.148;11.568;2023-02-23T20:18:30;6.50;;;5.68;;
6249;SDS011;3158;52.148;11.568;2023-02-23T20:23:32;17.38;;;7.63;;
6249;SDS011;3158;52.148;11.568;2023-02-23T20:28:34;11.07;;;6.18;;
6249;SDS011;3158;52.148;11.568;2023-02-23T20:33:35;16.58;;;6.70;;
6249;SDS011;3158;52.148;11.568;2023-02-23T20:38:37;19.38;;;6.47;;
6249;SDS011;3158;52.148;11.568;2023-02-23T20:43:38;17.58;;;6.22;;
6249;SDS011;3158;52.148;11.568;2023-02-23T20:48:40;19.45;;;6.38;;
6249;SDS011;3158;52.148;11.568;2023-02-23T20:53:41;18.83;;;6.57;;
6249;SDS011;3158;52.148;11.568;2023-02-23T20:58:44;24.52;;;7.35;;
6249;SDS011;3158;52.148;11.568;2023-02-23T21:03:46;17.65;;;5.55;;
6249;SDS011;3158;52.148;11.568;2023-02-23T21:08:47;12.57;;;5.10;;
6249;SDS011;3158;52.148;11.568;2023-02-23T21:13:48;20.20;;;6.88;;
6249;SDS011;3158;52.148;11.568;2023-02-23T21:18:50;27.83;;;9.10;;
6249;SDS011;3158;52.148;11.568;2023-02-23T21:23:56;24.10;;;7.78;;
6249;SDS011;3158;52.148;11.568;2023-02-23T21:28:57;31.75;;;8.68;;
6249;SDS011;3158;52.148;11.568;2023-02-23T21:33:58;21.10;;;8.32;;
6249;SDS011;3158;52.148;11.568;2023-02-23T21:38:59;27.23;;;7.75;;
6249;SDS011;3158;52.148;11.568;2023-02-23T21:44:01;22.70;;;7.95;;
6249;SDS011;3158;52.148;11.568;2023-02-23T21:49:03;32.22;;;8.52;;
6249;SDS011;3158;52.148;11.568;2023-02-23T21:54:08;23.15;;;7.85;;
6249;SDS011;3158;52.148;11.568;2023-02-23T21:59:10;38.55;;;9.27;;
6249;SDS011;3158;52.148;11.568;2023-02-23T22:04:12;29.25;;;9.50;;
6249;SDS011;3158;52.148;11.568;2023-02-23T22:09:14;37.47;;;10.25;;
6249;SDS011;3158;52.148;11.568;2023-02-23T22:14:15;36.78;;;10.07;;
6249;SDS011;3158;52.148;11.568;2023-02-23T22:19:17;35.42;;;10.40;;
6249;SDS011;3158;52.148;11.568;2023-02-23T22:24:18;38.95;;;10.85;;
6249;SDS011;3158;52.148;11.568;2023-02-23T22:29:20;37.05;;;10.90;;
6249;SDS011;3158;52.148;11.568;2023-02-23T22:34:21;39.25;;;11.05;;
6249;SDS011;3158;52.148;11.568;2023-02-23T22:39:22;33.20;;;10.32;;
6249;SDS011;3158;52.148;11.568;2023-02-23T22:44:23;34.63;;;10.75;;
6249;SDS011;3158;52.148;11.568;2023-02-23T22:49:24;39.60;;;10.27;;
6249;SDS011;3158;52.148;11.568;2023-02-23T22:54:26;36.15;;;9.85;;
6249;SDS011;3158;52.148;11.568;2023-02-23T22:59:27;32.10;;;8.93;;
6249;SDS011;3158;52.148;11.568;2023-02-23T23:04:29;32.25;;;9.38;;
6249;SDS011;3158;52.148;11.568;2023-02-23T23:09:33;28.02;;;7.38;;
6249;SDS011;3158;52.148;11.568;2023-02-23T23:14:38;21.30;;;5.45;;
6249;SDS011;3158;52.148;11.568;2023-02-23T23:19:39;17.63;;;6.45;;
6249;SDS011;3158;52.148;11.568;2023-02-23T23:24:40;14.55;;;4.35;;
6249;SDS011;3158;52.148;11.568;2023-02-23T23:29:47;13.00;;;3.63;;
6249;SDS011;3158;52.148;11.568;2023-02-23T23:34:49;8.35;;;1.33;;
6249;SDS011;3158;52.148;11.568;2023-02-23T23:39:50;6.05;;;1.05;;
6249;SDS011;3158;52.148;11.568;2023-02-23T23:44:58;5.70;;;0.80;;
6249;SDS011;3158;52.148;11.568;2023-02-23T23:50:01;6.60;;;1.00;;
6249;SDS011;3158;52.148;11.568;2023-02-23T23:55:02;5.53;;;1.38;;
